sensor_id;sensor_type;location;lat;lon;timestamp;pressure;altitude;pressure_sealevel;temperature;humidity
13695;BME280;6919;52.344;14.518;2023-05-08T00:00:08;101864.31;;;7.47;100.00
13695;BME280;6919;52.344;14.518;2023-05-08T00:02:39;101868.56;;;7.49;100.00
13695;BME280;6919;52.344;14.518;2023-05-08T00:05:08;101860.44;;;7.38;100.00
13695;BME280;6919;52.344;14.518;2023-05-08T00:07:37;101861.09;;;7.42;100.00
13695;BME280;6919;52.344;14.518;2023-05-08T00:10:07;101859.19;;;7.44;100.00
13695;BME280;6919;52.344;14.518;2023-05-08T00:12:36;101860.47;;;7.51;100.00
13695;BME280;6919;52.344;14.518;2023-05-08T00:15:06;101861.09;;;7.42;100.00
13695;BME280;6919;52.344;14.518;2023-05-08T00:17:34;101860.13;;;7.30;100.00
13695;BME280;6919;52.344;14.518;2023-05-08T00:20:06;101860.22;;;7.29;100.00
13695;BME280;6919;52.344;14.518;2023-05-08T00:22:34;101860.88;;;7.32;100.00
13695;BME280;6919;52.344;14.518;2023-05-08T00:25:03;101866.09;;;7.34;100.00
13695;BME280;6919;52.344;14.518;2023-05-08T00:27:32;101863.41;;;7.34;100.00
13695;BME280;6919;52.344;14.518;2023-05-08T00:30:00;101870.69;;;7.32;100.00
13695;BME280;6919;52.344;14.518;2023-05-08T00:32:29;101870.75;;;7.18;100.00
13695;BME280;6919;52.344;14.518;2023-05-08T00:34:57;101870.53;;;7.21;100.00
13695;BME280;6919;52.344;14.518;2023-05-08T00:37:27;101867.13;;;7.19;100.00
13695;BME280;6919;52.344;14.518;2023-05-08T00:39:55;101873.44;;;7.30;100.00
13695;BME280;6919;52.344;14.518;2023-05-08T00:42:23;101868.81;;;7.20;100.00
13695;BME280;6919;52.344;14.518;2023-05-08T00:44:54;101863.63;;;7.18;100.00
13695;BME280;6919;52.344;14.518;2023-05-08T00:47:23;101865.16;;;7.08;100.00
13695;BME280;6919;52.344;14.518;2023-05-08T00:49:52;101860.56;;;7.10;100.00
13695;BME280;6919;52.344;14.518;2023-05-08T00:52:20;101868.91;;;7.06;100.00
13695;BME280;6919;52.344;14.518;2023-05-08T00:54:50;101867.41;;;6.88;100.00
13695;BME280;6919;52.344;14.518;2023-05-08T00:57:20;101877.34;;;6.86;100.00
13695;BME280;6919;52.344;14.518;2023-05-08T00:59:49;101866.28;;;6.92;100.00
13695;BME280;6919;52.344;14.518;2023-05-08T01:02:19;101874.16;;;6.93;100.00
13695;BME280;6919;52.344;14.518;2023-05-08T01:04:48;101871.63;;;6.92;100.00
13695;BME280;6919;52.344;14.518;2023-05-08T01:07:17;101869.69;;;6.94;100.00
13695;BME280;6919;52.344;14.518;2023-05-08T01:09:45;101867.78;;;6.96;100.00
13695;BME280;6919;52.344;14.518;2023-05-08T01:12:23;101877.25;;;6.87;100.00
13695;BME280;6919;52.344;14.518;2023-05-08T01:15:06;101873.06;;;6.83;100.00
13695;BME280;6919;52.344;14.518;2023-05-08T01:17:48;101877.38;;;6.72;100.00
13695;BME280;6919;52.344;14.518;2023-05-08T01:20:34;101870.78;;;6.77;100.00
13695;BME280;6919;52.344;14.518;2023-05-08T01:23:51;101876.06;;;6.65;100.00
13695;BME280;6919;52.344;14.518;2023-05-08T01:26:55;101874.44;;;6.62;100.00
13695;BME280;6919;52.344;14.518;2023-05-08T01:30:15;101881.09;;;6.69;100.00
13695;BME280;6919;52.344;14.518;2023-05-08T01:32:54;101883.72;;;6.83;100.00
13695;BME280;6919;52.344;14.518;2023-05-08T01:35:29;101883.44;;;6.74;100.00
13695;BME280;6919;52.344;14.518;2023-05-08T01:38:07;101886.69;;;6.79;100.00
13695;BME280;6919;52.344;14.518;2023-05-08T01:40:49;101886.41;;;6.83;100.00
13695;BME280;6919;52.344;14.518;2023-05-08T01:43:30;101890.75;;;6.84;100.00
13695;BME280;6919;52.344;14.518;2023-05-08T01:46:09;101889.25;;;6.80;100.00
13695;BME280;6919;52.344;14.518;2023-05-08T01:48:49;101890.53;;;6.61;100.00
13695;BME280;6919;52.344;14.518;2023-05-08T01:51:21;101895.50;;;6.53;100.00
13695;BME280;6919;52.344;14.518;2023-05-08T01:53:55;101904.03;;;6.58;100.00
13695;BME280;6919;52.344;14.518;2023-05-08T01:56:28;101911.50;;;6.53;100.00
13695;BME280;6919;52.344;14.518;2023-05-08T01:59:00;101907.69;;;6.43;100.00
13695;BME280;6919;52.344;14.518;2023-05-08T02:01:32;101908.63;;;6.42;100.00
13695;BME280;6919;52.344;14.518;2023-05-08T02:04:04;101909.56;;;6.41;100.00
13695;BME280;6919;52.344;14.518;2023-05-08T02:06:35;101909.47;;;6.42;100.00
13695;BME280;6919;52.344;14.518;2023-05-08T02:09:07;101904.06;;;6.30;100.00
13695;BME280;6919;52.344;14.518;2023-05-08T02:11:38;101908.63;;;6.28;100.00
13695;BME280;6919;52.344;14.518;2023-05-08T02:14:08;101909.75;;;6.24;100.00
13695;BME280;6919;52.344;14.518;2023-05-08T02:16:41;101911.69;;;6.36;100.00
13695;BME280;6919;52.344;14.518;2023-05-08T02:19:13;101908.84;;;6.39;100.00
13695;BME280;6919;52.344;14.518;2023-05-08T02:21:44;101906.03;;;6.40;100.00
13695;BME280;6919;52.344;14.518;2023-05-08T02:24:15;101902.25;;;6.44;100.00
13695;BME280;6919;52.344;14.518;2023-05-08T02:26:45;101901.59;;;6.41;100.00
13695;BME280;6919;52.344;14.518;2023-05-08T02:29:16;101909.84;;;6.36;100.00
13695;BME280;6919;52.344;14.518;2023-05-08T02:31:45;101911.59;;;6.23;100.00
13695;BME280;6919;52.344;14.518;2023-05-08T02:34:17;101911.97;;;6.31;100.00
13695;BME280;6919;52.344;14.518;2023-05-08T02:36:46;101912.44;;;6.24;100.00
13695;BME280;6919;52.344;14.518;2023-05-08T02:39:18;101909.19;;;6.19;100.00
13695;BME280;6919;52.344;14.518;2023-05-08T02:41:47;101909.56;;;6.13;100.00
13695;BME280;6919;52.344;14.518;2023-05-08T02:44:16;101901.69;;;6.11;100.00
13695;BME280;6919;52.344;14.518;2023-05-08T02:46:51;101903.00;;;6.04;100.00
13695;BME280;6919;52.344;14.518;2023-05-08T02:49:30;101905.28;;;5.96;100.00
13695;BME280;6919;52.344;14.518;2023-05-08T02:52:09;101905.94;;;5.85;100.00
13695;BME280;6919;52.344;14.518;2023-05-08T02:54:46;101908.63;;;5.85;100.00
13695;BME280;6919;52.344;14.518;2023-05-08T02:57:32;101910.50;;;5.83;100.00
13695;BME280;6919;52.344;14.518;2023-05-08T03:00:11;101911.44;;;5.82;100.00
13695;BME280;6919;52.344;14.518;2023-05-08T03:02:48;101904.44;;;5.80;100.00
13695;BME280;6919;52.344;14.518;2023-05-08T03:05:25;101906.53;;;5.75;100.00
13695;BME280;6919;52.344;14.518;2023-05-08T03:08:02;101908.25;;;5.76;100.00
13695;BME280;6919;52.344;14.518;2023-05-08T03:10:35;101914.25;;;5.79;100.00
13695;BME280;6919;52.344;14.518;2023-05-08T03:13:06;101910.81;;;5.77;100.00
13695;BME280;6919;52.344;14.518;2023-05-08T03:15:42;101912.44;;;5.66;100.00
13695;BME280;6919;52.344;14.518;2023-05-08T03:18:16;101909.56;;;5.69;100.00
13695;BME280;6919;52.344;14.518;2023-05-08T03:20:52;101916.19;;;5.62;100.00
13695;BME280;6919;52.344;14.518;2023-05-08T03:23:25;101907.56;;;5.58;100.00
13695;BME280;6919;52.344;14.518;2023-05-08T03:25:57;101922.00;;;5.54;100.00
13695;BME280;6919;52.344;14.518;2023-05-08T03:28:26;101921.22;;;5.52;100.00
13695;BME280;6919;52.344;14.518;2023-05-08T03:30:57;101920.03;;;5.42;100.00
13695;BME280;6919;52.344;14.518;2023-05-08T03:33:28;101919.94;;;5.44;100.00
13695;BME280;6919;52.344;14.518;2023-05-08T03:35:59;101913.00;;;5.41;100.00
13695;BME280;6919;52.344;14.518;2023-05-08T03:38:28;101913.09;;;5.40;100.00
13695;BME280;6919;52.344;14.518;2023-05-08T03:40:58;101920.63;;;5.47;100.00
13695;BME280;6919;52.344;14.518;2023-05-08T03:43:28;101914.91;;;5.39;100.00
13695;BME280;6919;52.344;14.518;2023-05-08T03:45:58;101912.34;;;5.38;100.00
13695;BME280;6919;52.344;14.518;2023-05-08T03:48:29;101919.75;;;5.47;100.00
13695;BME280;6919;52.344;14.518;2023-05-08T03:51:04;101920.38;;;5.52;100.00
13695;BME280;6919;52.344;14.518;2023-05-08T03:53:33;101920.84;;;5.58;100.00
13695;BME280;6919;52.344;14.518;2023-05-08T03:56:01;101925.22;;;5.59;100.00
13695;BME280;6919;52.344;14.518;2023-05-08T03:58:37;101921.34;;;5.65;100.00
13695;BME280;6919;52.344;14.518;2023-05-08T04:01:16;101928.56;;;5.63;100.00
13695;BME280;6919;52.344;14.518;2023-05-08T04:03:57;101924.38;;;5.73;100.00
13695;BME280;6919;52.344;14.518;2023-05-08T04:06:36;101934.69;;;5.79;100.00
13695;BME280;6919;52.344;14.518;2023-05-08T04:09:19;101928.59;;;5.92;100.00
13695;BME280;6919;52.344;14.518;2023-05-08T04:12:01;101933.16;;;6.04;100.00
13695;BME280;6919;52.344;14.518;2023-05-08T04:14:35;101933.34;;;6.16;100.00
13695;BME280;6919;52.344;14.518;2023-05-08T04:17:09;101923.84;;;6.26;100.00
13695;BME280;6919;52.344;14.518;2023-05-08T04:19:45;101931.25;;;6.49;100.00
13695;BME280;6919;52.344;14.518;2023-05-08T04:22:18;101932.59;;;6.56;100.00
13695;BME280;6919;52.344;14.518;2023-05-08T04:24:48;101935.25;;;6.70;100.00
13695;BME280;6919;52.344;14.518;2023-05-08T04:27:18;101929.78;;;6.85;100.00
13695;BME280;6919;52.344;14.518;2023-05-08T04:29:47;101932.63;;;6.96;100.00
13695;BME280;6919;52.344;14.518;2023-05-08T04:32:16;101934.41;;;7.10;100.00
13695;BME280;6919;52.344;14.518;2023-05-08T04:34:45;101940.09;;;7.18;100.00
13695;BME280;6919;52.344;14.518;2023-05-08T04:37:24;101944.94;;;7.25;100.00
13695;BME280;6919;52.344;14.518;2023-05-08T04:39:53;101940.72;;;7.48;100.00
13695;BME280;6919;52.344;14.518;2023-05-08T04:42:21;101948.94;;;7.71;100.00
13695;BME280;6919;52.344;14.518;2023-05-08T04:44:51;101950.34;;;7.77;100.00
13695;BME280;6919;52.344;14.518;2023-05-08T04:47:20;101951.53;;;7.85;100.00
13695;BME280;6919;52.344;14.518;2023-05-08T04:49:50;101954.31;;;7.84;100.00
13695;BME280;6919;52.344;14.518;2023-05-08T04:52:18;101964.56;;;8.02;100.00
13695;BME280;6919;52.344;14.518;2023-05-08T04:54:47;101964.69;;;8.13;100.00
13695;BME280;6919;52.344;14.518;2023-05-08T04:57:16;101966.56;;;8.25;100.00
13695;BME280;6919;52.344;14.518;2023-05-08T04:59:44;101974.38;;;8.53;100.00
13695;BME280;6919;52.344;14.518;2023-05-08T05:02:12;101974.25;;;8.67;100.00
13695;BME280;6919;52.344;14.518;2023-05-08T05:04:41;101983.09;;;8.80;100.00
13695;BME280;6919;52.344;14.518;2023-05-08T05:07:09;101977.63;;;8.82;100.00
13695;BME280;6919;52.344;14.518;2023-05-08T05:09:37;101976.19;;;9.01;100.00
13695;BME280;6919;52.344;14.518;2023-05-08T05:12:07;101987.22;;;9.10;100.00
13695;BME280;6919;52.344;14.518;2023-05-08T05:14:36;101981.94;;;9.21;100.00
13695;BME280;6919;52.344;14.518;2023-05-08T05:17:04;101989.34;;;9.41;100.00
13695;BME280;6919;52.344;14.518;2023-05-08T05:19:32;101991.69;;;9.69;100.00
13695;BME280;6919;52.344;14.518;2023-05-08T05:22:01;101987.97;;;10.06;100.00
13695;BME280;6919;52.344;14.518;2023-05-08T05:24:29;101985.94;;;10.20;100.00
13695;BME280;6919;52.344;14.518;2023-05-08T05:26:57;101995.59;;;9.99;100.00
13695;BME280;6919;52.344;14.518;2023-05-08T05:29:27;101995.97;;;10.40;100.00
13695;BME280;6919;52.344;14.518;2023-05-08T05:31:56;101989.69;;;10.63;100.00
13695;BME280;6919;52.344;14.518;2023-05-08T05:34:24;101991.50;;;10.63;100.00
13695;BME280;6919;52.344;14.518;2023-05-08T05:36:53;101995.88;;;10.86;100.00
13695;BME280;6919;52.344;14.518;2023-05-08T05:39:21;101996.88;;;10.85;100.00
13695;BME280;6919;52.344;14.518;2023-05-08T05:41:49;102000.06;;;10.90;100.00
13695;BME280;6919;52.344;14.518;2023-05-08T05:44:20;102002.59;;;11.24;100.00
13695;BME280;6919;52.344;14.518;2023-05-08T05:46:50;102000.75;;;11.03;100.00
13695;BME280;6919;52.344;14.518;2023-05-08T05:49:18;101999.03;;;11.24;100.00
13695;BME280;6919;52.344;14.518;2023-05-08T05:51:46;101997.50;;;10.99;100.00
13695;BME280;6919;52.344;14.518;2023-05-08T05:54:15;101994.13;;;11.40;100.00
13695;BME280;6919;52.344;14.518;2023-05-08T05:56:43;101995.38;;;11.14;100.00
13695;BME280;6919;52.344;14.518;2023-05-08T05:59:12;101996.03;;;11.49;100.00
13695;BME280;6919;52.344;14.518;2023-05-08T06:01:40;101995.63;;;11.75;100.00
13695;BME280;6919;52.344;14.518;2023-05-08T06:04:10;101996.31;;;11.88;100.00
13695;BME280;6919;52.344;14.518;2023-05-08T06:06:39;101999.19;;;11.76;100.00
13695;BME280;6919;52.344;14.518;2023-05-08T06:09:07;101994.25;;;12.13;100.00
13695;BME280;6919;52.344;14.518;2023-05-08T06:11:35;101985.13;;;12.04;100.00
13695;BME280;6919;52.344;14.518;2023-05-08T06:14:03;102000.56;;;12.23;100.00
13695;BME280;6919;52.344;14.518;2023-05-08T06:16:32;102004.22;;;12.22;100.00
13695;BME280;6919;52.344;14.518;2023-05-08T06:19:01;102003.13;;;12.24;100.00
13695;BME280;6919;52.344;14.518;2023-05-08T06:21:31;102007.00;;;12.00;100.00
13695;BME280;6919;52.344;14.518;2023-05-08T06:24:00;102017.75;;;12.52;100.00
13695;BME280;6919;52.344;14.518;2023-05-08T06:26:29;102008.66;;;12.53;100.00
13695;BME280;6919;52.344;14.518;2023-05-08T06:28:57;102015.19;;;12.50;100.00
13695;BME280;6919;52.344;14.518;2023-05-08T06:31:26;102013.50;;;12.79;100.00
13695;BME280;6919;52.344;14.518;2023-05-08T06:33:54;102010.84;;;12.89;96.50
13695;BME280;6919;52.344;14.518;2023-05-08T06:36:22;102012.41;;;13.12;97.11
13695;BME280;6919;52.344;14.518;2023-05-08T06:38:52;102011.53;;;13.11;95.59
13695;BME280;6919;52.344;14.518;2023-05-08T06:41:20;102013.06;;;13.04;97.79
13695;BME280;6919;52.344;14.518;2023-05-08T06:43:49;102011.66;;;12.80;100.00
13695;BME280;6919;52.344;14.518;2023-05-08T06:46:17;102012.97;;;13.15;100.00
13695;BME280;6919;52.344;14.518;2023-05-08T06:48:45;102012.69;;;13.18;100.00
13695;BME280;6919;52.344;14.518;2023-05-08T06:51:14;102010.09;;;12.77;100.00
13695;BME280;6919;52.344;14.518;2023-05-08T06:53:42;102006.59;;;12.86;100.00
13695;BME280;6919;52.344;14.518;2023-05-08T06:56:12;102013.34;;;13.41;95.22
13695;BME280;6919;52.344;14.518;2023-05-08T06:58:40;102004.59;;;13.58;88.40
13695;BME280;6919;52.344;14.518;2023-05-08T07:01:16;102007.56;;;13.55;89.67
13695;BME280;6919;52.344;14.518;2023-05-08T07:03:45;102008.00;;;13.98;86.97
13695;BME280;6919;52.344;14.518;2023-05-08T07:06:13;102003.63;;;14.25;74.38
13695;BME280;6919;52.344;14.518;2023-05-08T07:08:41;102009.31;;;14.32;71.48
13695;BME280;6919;52.344;14.518;2023-05-08T07:11:09;102008.03;;;14.36;73.93
13695;BME280;6919;52.344;14.518;2023-05-08T07:13:39;102009.00;;;14.06;72.26
13695;BME280;6919;52.344;14.518;2023-05-08T07:16:09;102014.69;;;13.94;70.09
13695;BME280;6919;52.344;14.518;2023-05-08T07:18:37;102017.06;;;13.59;68.18
13695;BME280;6919;52.344;14.518;2023-05-08T07:21:06;102005.28;;;13.60;65.53
13695;BME280;6919;52.344;14.518;2023-05-08T07:23:34;102016.53;;;13.74;64.55
13695;BME280;6919;52.344;14.518;2023-05-08T07:26:03;102015.81;;;13.91;62.07
13695;BME280;6919;52.344;14.518;2023-05-08T07:28:31;102032.88;;;13.92;59.18
13695;BME280;6919;52.344;14.518;2023-05-08T07:31:04;102022.06;;;14.20;57.58
13695;BME280;6919;52.344;14.518;2023-05-08T07:33:36;102027.59;;;14.09;56.97
13695;BME280;6919;52.344;14.518;2023-05-08T07:36:05;102025.47;;;13.65;58.27
13695;BME280;6919;52.344;14.518;2023-05-08T07:38:33;102021.69;;;14.25;62.13
13695;BME280;6919;52.344;14.518;2023-05-08T07:41:02;102017.97;;;14.07;56.37
13695;BME280;6919;52.344;14.518;2023-05-08T07:43:31;102016.38;;;14.42;57.72
13695;BME280;6919;52.344;14.518;2023-05-08T07:46:01;102013.38;;;14.55;56.11
13695;BME280;6919;52.344;14.518;2023-05-08T07:48:29;102022.09;;;14.30;54.90
13695;BME280;6919;52.344;14.518;2023-05-08T07:50:58;102024.91;;;14.57;55.69
13695;BME280;6919;52.344;14.518;2023-05-08T07:53:26;102025.94;;;14.27;55.67
13695;BME280;6919;52.344;14.518;2023-05-08T07:55:54;102030.47;;;14.27;56.91
13695;BME280;6919;52.344;14.518;2023-05-08T07:58:23;102021.25;;;14.85;54.56
13695;BME280;6919;52.344;14.518;2023-05-08T08:00:51;102029.03;;;14.51;54.60
13695;BME280;6919;52.344;14.518;2023-05-08T08:03:21;102011.22;;;14.68;53.44
13695;BME280;6919;52.344;14.518;2023-05-08T08:05:49;102025.56;;;14.78;51.69
13695;BME280;6919;52.344;14.518;2023-05-08T08:08:18;102016.41;;;14.89;51.74
13695;BME280;6919;52.344;14.518;2023-05-08T08:10:46;102006.00;;;15.30;49.24
13695;BME280;6919;52.344;14.518;2023-05-08T08:13:15;102020.50;;;15.02;49.40
13695;BME280;6919;52.344;14.518;2023-05-08T08:15:43;102016.41;;;14.89;50.33
13695;BME280;6919;52.344;14.518;2023-05-08T08:18:12;102038.06;;;14.69;48.88
13695;BME280;6919;52.344;14.518;2023-05-08T08:20:42;102021.91;;;14.60;48.58
13695;BME280;6919;52.344;14.518;2023-05-08T08:23:10;102021.75;;;14.61;48.54
13695;BME280;6919;52.344;14.518;2023-05-08T08:25:39;102020.53;;;14.83;48.60
13695;BME280;6919;52.344;14.518;2023-05-08T08:28:07;102022.69;;;14.80;47.53
13695;BME280;6919;52.344;14.518;2023-05-08T08:30:35;102026.28;;;15.07;48.55
13695;BME280;6919;52.344;14.518;2023-05-08T08:33:04;102032.59;;;14.89;48.63
13695;BME280;6919;52.344;14.518;2023-05-08T08:35:33;102029.38;;;14.85;49.50
13695;BME280;6919;52.344;14.518;2023-05-08T08:38:03;102019.25;;;14.87;48.91
13695;BME280;6919;52.344;14.518;2023-05-08T08:40:31;102022.66;;;14.89;48.62
13695;BME280;6919;52.344;14.518;2023-05-08T08:43:00;102023.19;;;15.02;49.11
13695;BME280;6919;52.344;14.518;2023-05-08T08:45:29;102020.25;;;15.23;47.31
13695;BME280;6919;52.344;14.518;2023-05-08T08:48:01;102020.53;;;14.83;49.20
13695;BME280;6919;52.344;14.518;2023-05-08T08:50:32;102032.16;;;14.93;48.24
13695;BME280;6919;52.344;14.518;2023-05-08T08:53:07;102038.69;;;15.00;47.49
13695;BME280;6919;52.344;14.518;2023-05-08T08:55:43;102033.00;;;15.03;47.56
13695;BME280;6919;52.344;14.518;2023-05-08T08:58:30;102030.28;;;15.03;48.08
13695;BME280;6919;52.344;14.518;2023-05-08T09:01:06;102028.13;;;15.07;47.69
13695;BME280;6919;52.344;14.518;2023-05-08T09:03:36;102026.47;;;15.33;48.52
13695;BME280;6919;52.344;14.518;2023-05-08T09:06:06;102017.31;;;15.07;48.93
13695;BME280;6919;52.344;14.518;2023-05-08T09:08:37;102019.78;;;15.00;51.35
13695;BME280;6919;52.344;14.518;2023-05-08T09:11:05;102010.50;;;15.39;50.12
13695;BME280;6919;52.344;14.518;2023-05-08T09:13:34;102012.03;;;15.86;51.05
13695;BME280;6919;52.344;14.518;2023-05-08T09:16:04;102020.72;;;15.90;48.55
13695;BME280;6919;52.344;14.518;2023-05-08T09:18:33;102022.84;;;15.86;48.12
13695;BME280;6919;52.344;14.518;2023-05-08T09:21:05;102006.03;;;15.92;45.64
13695;BME280;6919;52.344;14.518;2023-05-08T09:23:36;102020.63;;;15.82;47.46
13695;BME280;6919;52.344;14.518;2023-05-08T09:26:04;102007.22;;;15.63;46.42
13695;BME280;6919;52.344;14.518;2023-05-08T09:28:33;102011.09;;;15.60;50.10
13695;BME280;6919;52.344;14.518;2023-05-08T09:31:01;102013.75;;;16.05;47.20
13695;BME280;6919;52.344;14.518;2023-05-08T09:33:29;102016.00;;;16.09;46.92
13695;BME280;6919;52.344;14.518;2023-05-08T09:35:57;102005.13;;;16.27;47.90
13695;BME280;6919;52.344;14.518;2023-05-08T09:38:36;102005.19;;;16.52;46.36
13695;BME280;6919;52.344;14.518;2023-05-08T09:41:09;102005.75;;;16.38;45.67
13695;BME280;6919;52.344;14.518;2023-05-08T09:43:38;102002.97;;;16.73;44.48
13695;BME280;6919;52.344;14.518;2023-05-08T09:46:23;101995.47;;;16.67;44.24
13695;BME280;6919;52.344;14.518;2023-05-08T09:48:54;101990.13;;;16.32;43.13
13695;BME280;6919;52.344;14.518;2023-05-08T09:51:24;102000.59;;;16.45;44.09
13695;BME280;6919;52.344;14.518;2023-05-08T09:53:56;101999.75;;;16.09;44.03
13695;BME280;6919;52.344;14.518;2023-05-08T09:56:35;101998.78;;;16.36;43.15
13695;BME280;6919;52.344;14.518;2023-05-08T09:59:21;101989.19;;;16.41;44.95
13695;BME280;6919;52.344;14.518;2023-05-08T10:01:50;101993.16;;;16.29;45.42
13695;BME280;6919;52.344;14.518;2023-05-08T10:04:30;101986.94;;;16.11;45.30
13695;BME280;6919;52.344;14.518;2023-05-08T10:07:00;101984.00;;;16.73;44.37
13695;BME280;6919;52.344;14.518;2023-05-08T10:09:30;101979.84;;;16.87;42.27
13695;BME280;6919;52.344;14.518;2023-05-08T10:12:15;101986.06;;;16.71;42.55
13695;BME280;6919;52.344;14.518;2023-05-08T10:14:44;101978.25;;;16.68;42.74
13695;BME280;6919;52.344;14.518;2023-05-08T10:17:22;101990.75;;;16.69;41.80
13695;BME280;6919;52.344;14.518;2023-05-08T10:19:59;101970.28;;;17.00;46.04
13695;BME280;6919;52.344;14.518;2023-05-08T10:22:31;101976.03;;;16.97;43.61
13695;BME280;6919;52.344;14.518;2023-05-08T10:25:15;101970.44;;;16.99;44.06
13695;BME280;6919;52.344;14.518;2023-05-08T10:27:54;101969.22;;;17.35;41.50
13695;BME280;6919;52.344;14.518;2023-05-08T10:30:25;101970.75;;;17.37;39.90
13695;BME280;6919;52.344;14.518;2023-05-08T10:32:56;101966.19;;;16.96;39.25
13695;BME280;6919;52.344;14.518;2023-05-08T10:35:26;101969.28;;;17.43;40.93
13695;BME280;6919;52.344;14.518;2023-05-08T10:37:56;101955.69;;;16.93;39.04
13695;BME280;6919;52.344;14.518;2023-05-08T10:40:26;101943.34;;;17.48;41.87
13695;BME280;6919;52.344;14.518;2023-05-08T10:42:56;101942.97;;;17.35;39.59
13695;BME280;6919;52.344;14.518;2023-05-08T10:45:25;101949.50;;;17.17;39.48
13695;BME280;6919;52.344;14.518;2023-05-08T10:48:06;101943.38;;;17.65;41.31
13695;BME280;6919;52.344;14.518;2023-05-08T10:50:53;101949.00;;;17.95;38.31
13695;BME280;6919;52.344;14.518;2023-05-08T10:53:37;101958.19;;;17.94;40.74
13695;BME280;6919;52.344;14.518;2023-05-08T10:56:08;101943.38;;;17.81;39.33
13695;BME280;6919;52.344;14.518;2023-05-08T10:58:37;101952.56;;;17.64;39.90
13695;BME280;6919;52.344;14.518;2023-05-08T11:01:14;101936.97;;;17.90;39.74
13695;BME280;6919;52.344;14.518;2023-05-08T11:03:46;101932.88;;;17.94;38.61
13695;BME280;6919;52.344;14.518;2023-05-08T11:06:44;101942.00;;;17.44;39.75
13695;BME280;6919;52.344;14.518;2023-05-08T11:09:21;101924.94;;;17.76;38.00
13695;BME280;6919;52.344;14.518;2023-05-08T11:12:05;101934.88;;;17.60;38.11
13695;BME280;6919;52.344;14.518;2023-05-08T11:14:39;101941.06;;;17.28;38.26
13695;BME280;6919;52.344;14.518;2023-05-08T11:17:10;101940.03;;;17.29;38.90
13695;BME280;6919;52.344;14.518;2023-05-08T11:19:53;101942.03;;;17.61;38.31
13695;BME280;6919;52.344;14.518;2023-05-08T11:22:25;101929.81;;;17.57;38.42
13695;BME280;6919;52.344;14.518;2023-05-08T11:25:06;101916.09;;;17.66;39.22
13695;BME280;6919;52.344;14.518;2023-05-08T11:30:38;101913.72;;;17.79;35.87
13695;BME280;6919;52.344;14.518;2023-05-08T11:33:15;101929.16;;;17.79;36.70
13695;BME280;6919;52.344;14.518;2023-05-08T11:35:47;101926.78;;;17.68;37.14
13695;BME280;6919;52.344;14.518;2023-05-08T11:38:33;101911.00;;;17.95;37.31
13695;BME280;6919;52.344;14.518;2023-05-08T11:41:05;101910.50;;;18.00;37.93
13695;BME280;6919;52.344;14.518;2023-05-08T11:44:19;101903.91;;;17.94;37.90
13695;BME280;6919;52.344;14.518;2023-05-08T11:46:51;101904.72;;;18.19;38.25
13695;BME280;6919;52.344;14.518;2023-05-08T11:49:22;101912.53;;;18.38;37.85
13695;BME280;6919;52.344;14.518;2023-05-08T11:51:58;101902.66;;;18.37;37.88
13695;BME280;6919;52.344;14.518;2023-05-08T11:54:29;101907.06;;;18.30;36.15
13695;BME280;6919;52.344;14.518;2023-05-08T11:56:58;101907.44;;;18.11;37.60
13695;BME280;6919;52.344;14.518;2023-05-08T11:59:34;101887.94;;;18.15;36.51
13695;BME280;6919;52.344;14.518;2023-05-08T12:02:03;101895.06;;;18.00;35.78
13695;BME280;6919;52.344;14.518;2023-05-08T12:04:53;101898.63;;;18.17;35.50
13695;BME280;6919;52.344;14.518;2023-05-08T12:07:21;101909.31;;;18.18;35.20
13695;BME280;6919;52.344;14.518;2023-05-08T12:09:50;101899.28;;;18.19;35.92
13695;BME280;6919;52.344;14.518;2023-05-08T12:12:18;101892.34;;;18.16;35.10
13695;BME280;6919;52.344;14.518;2023-05-08T12:14:50;101911.00;;;18.35;35.21
13695;BME280;6919;52.344;14.518;2023-05-08T12:17:18;101902.25;;;18.64;36.60
13695;BME280;6919;52.344;14.518;2023-05-08T12:19:47;101906.38;;;18.60;35.38
13695;BME280;6919;52.344;14.518;2023-05-08T12:22:15;101894.91;;;18.80;33.21
13695;BME280;6919;52.344;14.518;2023-05-08T12:24:43;101911.94;;;18.66;34.48
13695;BME280;6919;52.344;14.518;2023-05-08T12:27:12;101895.88;;;18.49;33.71
13695;BME280;6919;52.344;14.518;2023-05-08T12:29:44;101893.59;;;18.68;34.78
13695;BME280;6919;52.344;14.518;2023-05-08T12:32:14;101902.66;;;18.53;33.11
13695;BME280;6919;52.344;14.518;2023-05-08T12:34:42;101899.63;;;18.86;34.32
13695;BME280;6919;52.344;14.518;2023-05-08T12:37:10;101897.13;;;19.46;34.06
13695;BME280;6919;52.344;14.518;2023-05-08T12:39:43;101897.25;;;19.30;33.84
13695;BME280;6919;52.344;14.518;2023-05-08T12:42:12;101892.66;;;19.53;33.42
13695;BME280;6919;52.344;14.518;2023-05-08T12:44:49;101883.03;;;20.25;32.94
13695;BME280;6919;52.344;14.518;2023-05-08T12:47:19;101889.63;;;20.59;32.42
13695;BME280;6919;52.344;14.518;2023-05-08T12:49:48;101895.75;;;20.61;32.53
13695;BME280;6919;52.344;14.518;2023-05-08T12:52:18;101878.06;;;20.86;32.18
13695;BME280;6919;52.344;14.518;2023-05-08T12:54:48;101886.78;;;22.37;30.85
13695;BME280;6919;52.344;14.518;2023-05-08T12:57:18;101888.59;;;23.32;30.15
13695;BME280;6919;52.344;14.518;2023-05-08T12:59:48;101878.94;;;23.56;30.73
13695;BME280;6919;52.344;14.518;2023-05-08T13:02:34;101888.34;;;22.80;30.35
13695;BME280;6919;52.344;14.518;2023-05-08T13:05:19;101893.78;;;22.18;30.51
13695;BME280;6919;52.344;14.518;2023-05-08T13:07:48;101886.31;;;21.78;29.75
13695;BME280;6919;52.344;14.518;2023-05-08T13:10:17;101888.25;;;22.39;29.23
13695;BME280;6919;52.344;14.518;2023-05-08T13:12:49;101889.34;;;22.72;30.73
13695;BME280;6919;52.344;14.518;2023-05-08T13:15:18;101881.97;;;22.11;30.17